Time;durP1;ratioP1;P1;durP2;ratioP2;P2;SDS_P1;SDS_P2;PMS_P1;PMS_P2;Temp;Humidity;BMP_temperature;BMP_pressure;BME280_temperature;BME280_humidity;BME280_pressure;Samples;Min_cycle;Max_cycle;Signal;HPM_P1;HPM_P2
2023/11/10 00:09:01;;;;;;;3.58;1.20;;;7.80;8.20;;;;;;20647615;28;20046;-43
2023/11/10 00:19:07;;;;;;;3.78;1.65;;;7.90;8.40;;;;;;20637604;28;20116;-43
2023/11/10 00:29:08;;;;;;;4.18;2.15;;;7.90;7.90;;;;;;20632837;28;20057;-41
2023/11/10 00:39:08;;;;;;;4.38;2.17;;;7.90;7.10;;;;;;20636878;28;20247;-40
2023/11/10 00:49:09;;;;;;;6.32;2.90;;;7.90;5.90;;;;;;20630990;28;21383;-40
2023/11/10 00:59:10;;;;;;;4.97;2.65;;;8.00;8.50;;;;;;20646947;28;20045;-41
2023/11/10 01:09:12;;;;;;;4.93;2.80;;;7.90;11.40;;;;;;20640710;28;20305;-40
2023/11/10 01:19:13;;;;;;;5.32;2.85;;;8.00;10.30;;;;;;20624760;28;20030;-40
2023/11/10 01:29:13;;;;;;;4.93;2.67;;;8.00;14.20;;;;;;20638506;28;20054;-40
2023/11/10 01:39:14;;;;;;;4.72;2.80;;;7.90;15.10;;;;;;20640888;28;20046;-40
2023/11/10 01:49:21;;;;;;;4.95;2.38;;;8.10;8.60;;;;;;20639575;28;20046;-41
2023/11/10 01:59:22;;;;;;;4.10;2.47;;;8.10;6.20;;;;;;20637484;28;20038;-42
2023/11/10 02:09:22;;;;;;;5.25;2.60;;;8.20;6.80;;;;;;20640606;28;20057;-40
2023/11/10 02:19:24;;;;;;;5.97;2.75;;;8.30;4.30;;;;;;20634202;28;20030;-41
2023/11/10 02:29:24;;;;;;;5.00;2.05;;;8.20;6.80;;;;;;20638928;28;20046;-40
2023/11/10 02:39:25;;;;;;;4.72;1.73;;;8.20;7.10;;;;;;20645228;28;20477;-41
2023/11/10 02:49:26;;;;;;;2.63;1.63;;;8.10;8.30;;;;;;20648311;28;20057;-40
2023/11/10 02:59:26;;;;;;;5.65;2.13;;;8.10;9.00;;;;;;20645864;28;20057;-40
2023/11/10 03:09:27;;;;;;;3.60;1.48;;;8.10;15.00;;;;;;20634501;28;20713;-40
2023/11/10 03:19:27;;;;;;;6.90;2.30;;;8.20;16.30;;;;;;20637125;28;20402;-40
2023/11/10 03:29:28;;;;;;;6.63;2.50;;;8.20;20.10;;;;;;20649353;28;20045;-41
2023/11/10 03:39:29;;;;;;;3.75;2.53;;;8.30;17.20;;;;;;20642385;28;20057;-41
2023/11/10 03:49:30;;;;;;;6.15;2.80;;;8.30;18.10;;;;;;20638495;28;20034;-41
2023/11/10 03:59:31;;;;;;;7.13;3.13;;;8.40;13.60;;;;;;20640328;28;20038;-40
2023/11/10 04:09:35;;;;;;;7.80;2.50;;;8.40;17.20;;;;;;20634240;28;21505;-41
2023/11/10 04:19:35;;;;;;;6.45;2.92;;;8.40;14.50;;;;;;20641586;28;20039;-40
2023/11/10 04:29:36;;;;;;;5.57;3.25;;;8.30;18.80;;;;;;20638373;28;20096;-40
2023/11/10 04:39:36;;;;;;;5.80;2.77;;;8.30;19.70;;;;;;20649537;28;20081;-40
2023/11/10 04:49:38;;;;;;;6.80;3.35;;;8.40;19.60;;;;;;20661047;28;20169;-41
2023/11/10 04:59:39;;;;;;;4.97;2.58;;;8.40;19.40;;;;;;20652327;28;20744;-40
2023/11/10 05:09:40;;;;;;;8.52;2.35;;;8.20;19.90;;;;;;20642137;28;20072;-41
2023/11/10 05:19:40;;;;;;;11.60;4.00;;;8.10;26.20;;;;;;20650971;28;20045;-41
2023/11/10 05:29:41;;;;;;;9.27;3.03;;;8.00;26.60;;;;;;20652755;28;20341;-40
2023/11/10 05:39:42;;;;;;;4.82;2.38;;;8.00;25.80;;;;;;20644423;28;20129;-41
2023/11/10 05:49:42;;;;;;;4.40;1.90;;;7.90;30.30;;;;;;20647932;28;20457;-41
2023/11/10 05:59:46;;;;;;;6.35;1.52;;;7.80;31.40;;;;;;20644916;28;20045;-41
2023/11/10 06:09:46;;;;;;;6.07;2.10;;;7.70;34.10;;;;;;20643991;28;20137;-40
2023/11/10 06:19:49;;;;;;;4.88;1.33;;;7.70;36.20;;;;;;20647595;28;20153;-41
2023/11/10 06:29:49;;;;;;;4.00;1.08;;;7.70;43.20;;;;;;20649974;28;20054;-40
2023/11/10 06:39:50;;;;;;;6.33;1.50;;;7.70;56.50;;;;;;20647416;28;20073;-40
2023/11/10 06:49:50;;;;;;;4.55;1.50;;;7.80;66.40;;;;;;20635198;28;20057;-41
2023/11/10 06:59:51;;;;;;;6.20;1.58;;;7.90;67.90;;;;;;20647326;28;20120;-41
2023/11/10 07:09:52;;;;;;;9.07;2.20;;;7.90;53.50;;;;;;20649391;28;20047;-40
2023/11/10 07:19:53;;;;;;;6.10;1.30;;;7.90;45.20;;;;;;20648955;28;20129;-41
2023/11/10 07:29:54;;;;;;;6.32;1.58;;;7.90;36.50;;;;;;20643021;28;20069;-41
2023/11/10 07:39:54;;;;;;;3.60;1.40;;;7.90;35.80;;;;;;20661996;28;20421;-41
2023/11/10 07:49:55;;;;;;;6.43;1.70;;;7.80;42.90;;;;;;20658044;28;20456;-41
2023/11/10 07:59:55;;;;;;;6.80;1.60;;;7.90;45.50;;;;;;20664612;28;20800;-41
2023/11/10 08:09:56;;;;;;;8.75;2.45;;;7.90;41.20;;;;;;20657171;28;20042;-41
2023/11/10 08:19:57;;;;;;;9.88;2.95;;;8.00;58.70;;;;;;20658649;28;20052;-41
2023/11/10 08:29:58;;;;;;;5.53;3.08;;;7.90;72.20;;;;;;20660240;28;20050;-41
2023/11/10 08:39:58;;;;;;;8.77;3.22;;;8.00;64.20;;;;;;20661650;28;20662;-41
2023/11/10 08:49:59;;;;;;;8.88;2.70;;;8.10;66.90;;;;;;20656710;28;20108;-41
2023/11/10 09:00:00;;;;;;;9.30;3.40;;;8.10;50.10;;;;;;20662757;28;20476;-40
2023/11/10 09:10:00;;;;;;;8.85;3.55;;;8.20;40.50;;;;;;20670469;28;20391;-41
2023/11/10 09:20:01;;;;;;;9.38;4.32;;;8.20;39.90;;;;;;20661861;28;20041;-41
2023/11/10 09:30:02;;;;;;;13.38;5.00;;;8.10;48.90;;;;;;20655519;28;20497;-41
2023/11/10 09:40:04;;;;;;;10.32;5.22;;;8.30;40.00;;;;;;20657309;28;20134;-41
2023/11/10 09:50:07;;;;;;;7.70;4.05;;;8.30;33.60;;;;;;20652590;28;20034;-41
2023/11/10 10:00:13;;;;;;;6.70;3.28;;;8.40;26.80;;;;;;20654280;28;20050;-41
2023/11/10 10:10:14;;;;;;;8.95;3.40;;;8.60;16.80;;;;;;20657855;28;20033;-41
2023/11/10 10:20:14;;;;;;;5.70;2.70;;;8.60;12.40;;;;;;20655745;28;20044;-41
2023/11/10 10:30:15;;;;;;;5.97;2.63;;;8.60;15.90;;;;;;20656505;28;20083;-41
2023/11/10 10:40:16;;;;;;;7.13;2.90;;;8.80;9.20;;;;;;20659848;28;20470;-41
2023/11/10 10:50:17;;;;;;;4.95;2.55;;;8.80;7.30;;;;;;20652202;28;20079;-41
2023/11/10 11:00:19;;;;;;;5.85;2.80;;;8.80;10.80;;;;;;20648624;28;20060;-40
2023/11/10 11:10:31;;;;;;;6.32;3.15;;;8.80;14.60;;;;;;20644151;28;20069;-40
2023/11/10 11:20:34;;;;;;;6.70;3.22;;;8.80;10.50;;;;;;20665146;28;20450;-40
2023/11/10 11:30:40;;;;;;;7.15;3.45;;;8.90;9.10;;;;;;20661557;28;20072;-40
2023/11/10 11:40:42;;;;;;;8.88;2.72;;;9.00;9.60;;;;;;20660197;28;20590;-40
2023/11/10 11:50:43;;;;;;;6.60;2.72;;;8.90;14.10;;;;;;20656800;28;20470;-41
2023/11/10 12:00:44;;;;;;;6.13;2.22;;;9.20;8.30;;;;;;20661977;28;20034;-40
2023/11/10 12:10:45;;;;;;;5.80;1.60;;;9.30;10.40;;;;;;20662630;28;20042;-40
2023/11/10 12:20:45;;;;;;;7.53;2.83;;;9.20;9.80;;;;;;20660396;28;20140;-41
2023/11/10 12:30:46;;;;;;;5.15;2.03;;;8.90;28.00;;;;;;20658750;28;20084;-41
2023/11/10 12:40:50;;;;;;;6.17;2.13;;;8.60;58.00;;;;;;20660692;28;20666;-42
2023/11/10 12:50:52;;;;;;;5.05;2.38;;;8.60;91.80;;;;;;20664570;28;20517;-41
2023/11/10 13:00:53;;;;;;;9.00;2.50;;;8.30;99.90;;;;;;20686662;28;20046;-42
2023/11/10 13:10:53;;;;;;;5.32;2.72;;;8.20;99.90;;;;;;20668448;28;20905;-41
2023/11/10 13:20:54;;;;;;;4.68;3.10;;;8.40;99.90;;;;;;20661668;28;20045;-41
2023/11/10 13:30:54;;;;;;;6.03;3.10;;;8.50;99.90;;;;;;20663762;28;20510;-41
2023/11/10 13:40:56;;;;;;;6.50;2.80;;;8.50;99.90;;;;;;20666225;28;20486;-42
2023/11/10 13:50:57;;;;;;;9.30;4.97;;;8.50;99.90;;;;;;20666931;28;20120;-42
2023/11/10 14:00:58;;;;;;;7.85;4.70;;;8.60;99.90;;;;;;20656316;28;20064;-42
2023/11/10 14:10:59;;;;;;;7.83;3.87;;;8.60;99.90;;;;;;20650113;28;20047;-42
2023/11/10 14:20:59;;;;;;;6.13;4.00;;;8.70;99.90;;;;;;20652710;28;20068;-42
2023/11/10 14:31:00;;;;;;;6.95;4.40;;;8.70;99.90;;;;;;20646892;28;20042;-42
2023/11/10 14:41:01;;;;;;;8.27;4.00;;;8.60;99.90;;;;;;20650263;28;20037;-41
2023/11/10 14:51:03;;;;;;;7.85;4.07;;;8.50;99.90;;;;;;20649870;28;20605;-41
2023/11/10 15:01:07;;;;;;;8.80;4.43;;;8.60;99.90;;;;;;20653255;28;20065;-41
2023/11/10 15:11:08;;;;;;;9.40;5.18;;;8.50;99.90;;;;;;20646349;28;20061;-41
2023/11/10 15:21:09;;;;;;;10.98;4.55;;;8.60;99.90;;;;;;20647660;28;20042;-41
2023/11/10 15:31:09;;;;;;;9.80;4.90;;;8.60;99.90;;;;;;20647581;28;20057;-41
2023/11/10 15:41:10;;;;;;;10.20;4.70;;;8.70;99.90;;;;;;20646674;28;20584;-42
2023/11/10 15:51:10;;;;;;;10.18;3.72;;;8.50;99.90;;;;;;20644371;28;20473;-41
2023/11/10 16:01:11;;;;;;;4.20;2.15;;;8.60;99.90;;;;;;20645058;28;20037;-41
2023/11/10 16:11:12;;;;;;;7.95;4.78;;;8.60;99.90;;;;;;20643172;28;20042;-42
2023/11/10 16:21:12;;;;;;;11.75;6.85;;;8.40;99.90;;;;;;20633543;28;20129;-42
2023/11/10 16:31:13;;;;;;;10.70;5.53;;;8.30;99.90;;;;;;20654230;28;20170;-42
2023/11/10 16:41:13;;;;;;;8.48;5.15;;;8.40;99.90;;;;;;20646934;28;20556;-41
2023/11/10 16:51:14;;;;;;;16.30;8.00;;;8.50;99.90;;;;;;20642650;28;20038;-41
2023/11/10 17:01:14;;;;;;;11.15;4.57;;;8.40;99.90;;;;;;20644957;28;20049;-41
2023/11/10 17:11:15;;;;;;;7.90;3.38;;;8.40;99.90;;;;;;20654608;28;20422;-41
2023/11/10 17:21:17;;;;;;;4.70;2.10;;;8.20;99.90;;;;;;20672312;28;20396;-41
2023/11/10 17:31:18;;;;;;;4.70;1.80;;;8.10;99.90;;;;;;20668458;28;20204;-41
2023/11/10 17:41:20;;;;;;;4.35;1.50;;;8.00;99.90;;;;;;20644538;28;20040;-41
2023/11/10 17:51:22;;;;;;;2.95;1.10;;;8.00;99.90;;;;;;20661816;28;20046;-41
2023/11/10 18:01:22;;;;;;;3.90;1.42;;;7.90;99.90;;;;;;20656742;28;20493;-41
2023/11/10 18:11:24;;;;;;;2.80;1.50;;;7.80;99.90;;;;;;20640452;28;20442;-41
2023/11/10 18:21:25;;;;;;;2.35;1.05;;;7.70;99.90;;;;;;20634965;28;20468;-41
2023/11/10 18:31:26;;;;;;;4.15;1.00;;;7.70;99.90;;;;;;20630968;28;20056;-41
2023/11/10 18:41:26;;;;;;;3.13;1.88;;;7.70;99.90;;;;;;20631300;28;20383;-41
2023/11/10 18:51:32;;;;;;;4.28;2.20;;;7.80;99.90;;;;;;20630855;28;20069;-41
2023/11/10 19:01:33;;;;;;;3.78;1.92;;;7.80;99.90;;;;;;20641847;28;20046;-41
2023/11/10 19:11:34;;;;;;;5.50;2.83;;;7.80;99.90;;;;;;20642087;28;20050;-41
2023/11/10 19:21:39;;;;;;;5.68;3.17;;;8.00;99.90;;;;;;20638328;28;20042;-41
2023/11/10 19:31:40;;;;;;;6.70;4.32;;;7.80;99.90;;;;;;20642677;28;20243;-41
2023/11/10 19:41:40;;;;;;;9.07;6.00;;;7.80;99.90;;;;;;20633117;28;20042;-41
2023/11/10 19:51:44;;;;;;;8.38;5.85;;;7.70;99.90;;;;;;20644459;28;20141;-41
2023/11/10 20:01:45;;;;;;;14.30;9.63;;;7.70;99.90;;;;;;20642125;28;20038;-40
2023/11/10 20:11:45;;;;;;;13.18;7.57;;;7.70;99.90;;;;;;20659964;28;20945;-41
2023/11/10 20:21:46;;;;;;;10.38;7.70;;;7.60;99.90;;;;;;20644235;28;20038;-41
2023/11/10 20:31:46;;;;;;;10.77;7.30;;;7.60;99.90;;;;;;20633368;28;20049;-41
2023/11/10 20:41:47;;;;;;;13.32;8.48;;;7.50;99.90;;;;;;20640781;28;20121;-41
2023/11/10 20:51:47;;;;;;;14.40;10.02;;;7.50;99.90;;;;;;20646854;28;20042;-41
2023/11/10 21:01:48;;;;;;;19.63;13.15;;;7.40;99.90;;;;;;20652228;28;20038;-41
2023/11/10 21:11:49;;;;;;;16.45;10.77;;;7.30;99.90;;;;;;20644963;28;20526;-41
2023/11/10 21:21:50;;;;;;;12.43;9.98;;;7.20;99.90;;;;;;20649914;28;20441;-41
2023/11/10 21:31:51;;;;;;;12.68;9.50;;;7.20;99.90;;;;;;20630060;28;20453;-41
2023/11/10 21:41:54;;;;;;;15.05;9.77;;;7.10;99.90;;;;;;20629491;28;20041;-41
2023/11/10 21:51:54;;;;;;;17.65;11.10;;;7.10;99.90;;;;;;20643489;28;20042;-41
2023/11/10 22:01:55;;;;;;;17.35;12.05;;;7.10;99.90;;;;;;20632844;28;20117;-41
2023/11/10 22:11:55;;;;;;;14.45;10.00;;;7.00;99.90;;;;;;20625679;28;20042;-41
2023/11/10 22:21:56;;;;;;;13.57;8.57;;;6.90;99.90;;;;;;20631507;28;20048;-41
2023/11/10 22:31:57;;;;;;;14.02;8.88;;;6.70;99.90;;;;;;20629578;28;20050;-41
2023/11/10 22:41:57;;;;;;;14.53;10.07;;;6.60;99.90;;;;;;20639119;28;20347;-41
2023/11/10 22:51:58;;;;;;;17.13;10.40;;;6.50;99.90;;;;;;20658006;28;20045;-41
2023/11/10 23:01:59;;;;;;;19.48;11.60;;;6.30;99.90;;;;;;20655748;28;20573;-41
2023/11/10 23:11:59;;;;;;;15.57;9.27;;;6.20;99.90;;;;;;20666494;28;20033;-41
2023/11/10 23:22:00;;;;;;;15.07;7.85;;;6.10;99.90;;;;;;20668446;28;20359;-41
2023/11/10 23:32:02;;;;;;;10.95;6.22;;;6.00;99.90;;;;;;20651194;28;20057;-41
2023/11/10 23:42:03;;;;;;;10.63;4.30;;;5.80;99.90;;;;;;20635301;28;20505;-41
2023/11/10 23:52:05;;;;;;;5.82;3.63;;;5.80;99.90;;;;;;20640580;28;20049;-41
